首页
METAR-TAF:

METAR-TAF

机场 :

羅利達拉姆國際機場

罗利 / 达勒姆, 北卡罗来纳州, 美国

纬度: 35-52-14N, 经度: 078-47-11W, 海拔: 133米

当前天气观测

该预报发布于1小时和6分钟前的08:51 UTC
静风
温度 23°C
湿度 94%
气压 1019 hPa
能見度: 9.7公里
少量云层高于10000英尺
轻雾

METAR: KRDU 260851Z 00000KT 6SM BR FEW100 23/22 A3008 RMK AO2 SLP180 60005 T02280222 55011 $

时间: 05:57 (09:57 UTC)

预报

该预报发布于4小时和16分钟前的05:41 UTC
预报有效从26日的 06点(UTC)到 27日的 06点(UTC)
风速8节,风向
能見度: 10公里
少量云层高于6000英尺
散云层高于20000英尺
短暂存在
从 26日的 06点(UTC)到 26日的 07点(UTC)
风速15节,风向西转西北,有时为30节阵风
能見度: 3.2公里
散云层高于2500英尺
多云层高于4000英尺
大阵雨
从 26日的 1500点(UTC)
风速8节,风向西
能見度: 10公里
散云层高于6000英尺
散云层高于25000英尺

TAF: KRDU 260541Z 2606/2706 19008KT P6SM FEW060 SCT200 TEMPO 2606/2607 30015G30KT 2SM +SHRA SCT025 BKN040 FM261500 27008KT P6SM SCT060 SCT250

超过4000个机场的气象观测和天气预报(METAR&TAF报告)。

可查询的气象台以黄色和红色小点在地图上表示。

将鼠标移到小点上方,可查看气象台名称。

然后点击查看天气观测和预报。

如需切换地图:点击带黑十字的绿色按钮放大地图;点击带横线的绿色按钮缩小地图;或者点击绿色箭头查看邻近地区的地图。


METAR-TAF: